sensor_id;sensor_type;location;lat;lon;timestamp;temperature;humidity
7349;DHT22;13010;-33.424;-70.614;2023-02-26T00:02:13;18.40;99.90
7349;DHT22;13010;-33.424;-70.614;2023-02-26T00:05:02;18.30;99.90
7349;DHT22;13010;-33.424;-70.614;2023-02-26T00:07:51;18.40;99.90
7349;DHT22;13010;-33.424;-70.614;2023-02-26T00:10:42;18.30;99.90
7349;DHT22;13010;-33.424;-70.614;2023-02-26T00:13:32;18.20;99.90
7349;DHT22;13010;-33.424;-70.614;2023-02-26T00:16:27;18.00;99.90
7349;DHT22;13010;-33.424;-70.614;2023-02-26T00:19:16;17.80;99.90
7349;DHT22;13010;-33.424;-70.614;2023-02-26T00:22:06;17.80;99.90
7349;DHT22;13010;-33.424;-70.614;2023-02-26T00:24:55;17.60;99.90
7349;DHT22;13010;-33.424;-70.614;2023-02-26T00:27:47;17.80;99.90
7349;DHT22;13010;-33.424;-70.614;2023-02-26T00:30:37;17.90;99.90
7349;DHT22;13010;-33.424;-70.614;2023-02-26T00:33:28;17.80;99.90
7349;DHT22;13010;-33.424;-70.614;2023-02-26T00:36:21;17.80;99.90
7349;DHT22;13010;-33.424;-70.614;2023-02-26T00:39:30;17.60;99.90
7349;DHT22;13010;-33.424;-70.614;2023-02-26T00:42:22;17.50;99.90
7349;DHT22;13010;-33.424;-70.614;2023-02-26T00:45:12;17.40;99.90
7349;DHT22;13010;-33.424;-70.614;2023-02-26T00:48:17;17.40;99.90
7349;DHT22;13010;-33.424;-70.614;2023-02-26T00:51:15;17.20;99.90
7349;DHT22;13010;-33.424;-70.614;2023-02-26T00:54:11;17.10;99.90
7349;DHT22;13010;-33.424;-70.614;2023-02-26T00:57:00;17.00;99.90
7349;DHT22;13010;-33.424;-70.614;2023-02-26T00:59:51;16.90;99.90
7349;DHT22;13010;-33.424;-70.614;2023-02-26T01:02:40;16.70;99.90
7349;DHT22;13010;-33.424;-70.614;2023-02-26T01:05:29;16.60;99.90
7349;DHT22;13010;-33.424;-70.614;2023-02-26T01:08:26;16.60;99.90
7349;DHT22;13010;-33.424;-70.614;2023-02-26T01:11:19;16.70;99.90
7349;DHT22;13010;-33.424;-70.614;2023-02-26T01:14:17;16.80;99.90
7349;DHT22;13010;-33.424;-70.614;2023-02-26T01:17:12;16.70;99.90
7349;DHT22;13010;-33.424;-70.614;2023-02-26T01:20:10;16.60;99.90
7349;DHT22;13010;-33.424;-70.614;2023-02-26T01:23:03;16.50;99.90
7349;DHT22;13010;-33.424;-70.614;2023-02-26T01:25:58;16.60;99.90
7349;DHT22;13010;-33.424;-70.614;2023-02-26T01:28:48;16.40;99.90
7349;DHT22;13010;-33.424;-70.614;2023-02-26T01:31:45;16.50;99.90
7349;DHT22;13010;-33.424;-70.614;2023-02-26T01:34:40;16.40;99.90
7349;DHT22;13010;-33.424;-70.614;2023-02-26T01:37:35;16.40;99.90
7349;DHT22;13010;-33.424;-70.614;2023-02-26T01:43:45;16.20;99.90
7349;DHT22;13010;-33.424;-70.614;2023-02-26T01:46:43;16.00;99.90
7349;DHT22;13010;-33.424;-70.614;2023-02-26T01:49:34;15.80;99.90
7349;DHT22;13010;-33.424;-70.614;2023-02-26T01:55:52;16.00;99.90
7349;DHT22;13010;-33.424;-70.614;2023-02-26T01:58:47;16.10;99.90
7349;DHT22;13010;-33.424;-70.614;2023-02-26T02:01:39;16.10;99.90
7349;DHT22;13010;-33.424;-70.614;2023-02-26T02:04:28;15.90;99.90
7349;DHT22;13010;-33.424;-70.614;2023-02-26T02:07:18;15.80;99.90
7349;DHT22;13010;-33.424;-70.614;2023-02-26T02:10:08;15.50;99.90
7349;DHT22;13010;-33.424;-70.614;2023-02-26T02:13:02;15.30;99.90
7349;DHT22;13010;-33.424;-70.614;2023-02-26T02:16:02;15.10;99.90
7349;DHT22;13010;-33.424;-70.614;2023-02-26T02:18:59;15.00;99.90
7349;DHT22;13010;-33.424;-70.614;2023-02-26T02:22:00;14.80;99.90
7349;DHT22;13010;-33.424;-70.614;2023-02-26T02:25:08;14.70;99.90
7349;DHT22;13010;-33.424;-70.614;2023-02-26T02:28:03;14.50;99.90
7349;DHT22;13010;-33.424;-70.614;2023-02-26T02:31:03;14.50;99.90
7349;DHT22;13010;-33.424;-70.614;2023-02-26T02:34:00;14.40;99.90
7349;DHT22;13010;-33.424;-70.614;2023-02-26T02:36:55;14.50;99.90
7349;DHT22;13010;-33.424;-70.614;2023-02-26T02:39:48;14.50;99.90
7349;DHT22;13010;-33.424;-70.614;2023-02-26T02:42:41;14.40;99.90
7349;DHT22;13010;-33.424;-70.614;2023-02-26T02:45:38;14.30;99.90
7349;DHT22;13010;-33.424;-70.614;2023-02-26T02:48:32;14.10;99.90
7349;DHT22;13010;-33.424;-70.614;2023-02-26T02:51:25;14.00;99.90
7349;DHT22;13010;-33.424;-70.614;2023-02-26T02:54:17;14.20;99.90
7349;DHT22;13010;-33.424;-70.614;2023-02-26T02:57:12;14.10;99.90
7349;DHT22;13010;-33.424;-70.614;2023-02-26T03:00:06;14.00;99.90
7349;DHT22;13010;-33.424;-70.614;2023-02-26T03:03:01;14.10;99.90
7349;DHT22;13010;-33.424;-70.614;2023-02-26T03:05:54;14.20;99.90
7349;DHT22;13010;-33.424;-70.614;2023-02-26T03:08:44;14.30;99.90
7349;DHT22;13010;-33.424;-70.614;2023-02-26T03:11:34;14.40;99.90
7349;DHT22;13010;-33.424;-70.614;2023-02-26T03:14:23;14.50;99.90
7349;DHT22;13010;-33.424;-70.614;2023-02-26T03:17:22;14.40;99.90
7349;DHT22;13010;-33.424;-70.614;2023-02-26T03:20:21;14.50;99.90
7349;DHT22;13010;-33.424;-70.614;2023-02-26T03:23:20;14.30;99.90
7349;DHT22;13010;-33.424;-70.614;2023-02-26T03:26:13;14.30;99.90
7349;DHT22;13010;-33.424;-70.614;2023-02-26T03:29:07;14.20;99.90
7349;DHT22;13010;-33.424;-70.614;2023-02-26T03:31:59;14.10;99.90
7349;DHT22;13010;-33.424;-70.614;2023-02-26T03:34:52;14.00;99.90
7349;DHT22;13010;-33.424;-70.614;2023-02-26T03:37:45;13.90;99.90
7349;DHT22;13010;-33.424;-70.614;2023-02-26T03:40:41;14.00;99.90
7349;DHT22;13010;-33.424;-70.614;2023-02-26T03:43:34;13.90;99.90
7349;DHT22;13010;-33.424;-70.614;2023-02-26T03:46:28;13.90;99.90
7349;DHT22;13010;-33.424;-70.614;2023-02-26T03:49:21;13.80;99.90
7349;DHT22;13010;-33.424;-70.614;2023-02-26T03:52:12;13.80;99.90
7349;DHT22;13010;-33.424;-70.614;2023-02-26T03:55:05;13.70;99.90
7349;DHT22;13010;-33.424;-70.614;2023-02-26T03:57:57;13.50;99.90
7349;DHT22;13010;-33.424;-70.614;2023-02-26T04:00:49;13.50;99.90
7349;DHT22;13010;-33.424;-70.614;2023-02-26T04:03:44;13.30;99.90
7349;DHT22;13010;-33.424;-70.614;2023-02-26T04:06:35;13.40;99.90
7349;DHT22;13010;-33.424;-70.614;2023-02-26T04:09:24;13.30;99.90
7349;DHT22;13010;-33.424;-70.614;2023-02-26T04:12:13;13.20;99.90
7349;DHT22;13010;-33.424;-70.614;2023-02-26T04:15:04;13.30;99.90
7349;DHT22;13010;-33.424;-70.614;2023-02-26T04:17:53;13.20;99.90
7349;DHT22;13010;-33.424;-70.614;2023-02-26T04:20:42;13.00;99.90
7349;DHT22;13010;-33.424;-70.614;2023-02-26T04:23:30;12.90;99.90
7349;DHT22;13010;-33.424;-70.614;2023-02-26T04:26:20;12.80;99.90
7349;DHT22;13010;-33.424;-70.614;2023-02-26T04:29:08;12.90;99.90
7349;DHT22;13010;-33.424;-70.614;2023-02-26T04:31:59;12.90;99.90
7349;DHT22;13010;-33.424;-70.614;2023-02-26T04:34:48;13.00;99.90
7349;DHT22;13010;-33.424;-70.614;2023-02-26T04:37:37;13.00;99.90
7349;DHT22;13010;-33.424;-70.614;2023-02-26T04:40:26;13.00;99.90
7349;DHT22;13010;-33.424;-70.614;2023-02-26T04:43:15;12.90;99.90
7349;DHT22;13010;-33.424;-70.614;2023-02-26T04:46:05;13.00;99.90
7349;DHT22;13010;-33.424;-70.614;2023-02-26T04:48:55;12.90;99.90
7349;DHT22;13010;-33.424;-70.614;2023-02-26T04:51:44;12.80;99.90
7349;DHT22;13010;-33.424;-70.614;2023-02-26T04:54:33;12.80;99.90
7349;DHT22;13010;-33.424;-70.614;2023-02-26T04:57:22;12.80;99.90
7349;DHT22;13010;-33.424;-70.614;2023-02-26T05:00:12;12.70;99.90
7349;DHT22;13010;-33.424;-70.614;2023-02-26T05:03:03;12.80;99.90
7349;DHT22;13010;-33.424;-70.614;2023-02-26T05:05:53;12.70;99.90
7349;DHT22;13010;-33.424;-70.614;2023-02-26T05:08:42;12.60;99.90
7349;DHT22;13010;-33.424;-70.614;2023-02-26T05:11:33;12.70;99.90
7349;DHT22;13010;-33.424;-70.614;2023-02-26T05:14:21;12.70;99.90
7349;DHT22;13010;-33.424;-70.614;2023-02-26T05:17:10;12.60;99.90
7349;DHT22;13010;-33.424;-70.614;2023-02-26T05:19:59;12.60;99.90
7349;DHT22;13010;-33.424;-70.614;2023-02-26T05:22:50;12.40;99.90
7349;DHT22;13010;-33.424;-70.614;2023-02-26T05:25:39;12.30;99.90
7349;DHT22;13010;-33.424;-70.614;2023-02-26T05:28:28;12.20;99.90
7349;DHT22;13010;-33.424;-70.614;2023-02-26T05:31:18;12.10;99.90
7349;DHT22;13010;-33.424;-70.614;2023-02-26T05:34:07;12.00;99.90
7349;DHT22;13010;-33.424;-70.614;2023-02-26T05:36:56;11.90;99.90
7349;DHT22;13010;-33.424;-70.614;2023-02-26T05:39:52;11.80;99.90
7349;DHT22;13010;-33.424;-70.614;2023-02-26T05:42:58;11.60;99.90
7349;DHT22;13010;-33.424;-70.614;2023-02-26T05:45:46;11.40;99.90
7349;DHT22;13010;-33.424;-70.614;2023-02-26T05:48:37;11.30;99.90
7349;DHT22;13010;-33.424;-70.614;2023-02-26T05:51:26;11.20;99.90
7349;DHT22;13010;-33.424;-70.614;2023-02-26T05:54:15;11.20;99.90
7349;DHT22;13010;-33.424;-70.614;2023-02-26T05:57:06;11.20;99.90
7349;DHT22;13010;-33.424;-70.614;2023-02-26T05:59:55;11.00;99.90
7349;DHT22;13010;-33.424;-70.614;2023-02-26T06:02:44;10.90;99.90
7349;DHT22;13010;-33.424;-70.614;2023-02-26T06:05:32;10.60;99.90
7349;DHT22;13010;-33.424;-70.614;2023-02-26T06:08:22;10.40;99.90
7349;DHT22;13010;-33.424;-70.614;2023-02-26T06:11:11;10.40;99.90
7349;DHT22;13010;-33.424;-70.614;2023-02-26T06:14:02;10.40;99.90
7349;DHT22;13010;-33.424;-70.614;2023-02-26T06:16:50;10.40;99.90
7349;DHT22;13010;-33.424;-70.614;2023-02-26T06:19:39;10.60;99.90
7349;DHT22;13010;-33.424;-70.614;2023-02-26T06:22:27;10.50;99.90
7349;DHT22;13010;-33.424;-70.614;2023-02-26T06:25:16;10.60;99.90
7349;DHT22;13010;-33.424;-70.614;2023-02-26T06:28:05;10.60;99.90
7349;DHT22;13010;-33.424;-70.614;2023-02-26T06:30:56;10.50;99.90
7349;DHT22;13010;-33.424;-70.614;2023-02-26T06:33:45;10.40;99.90
7349;DHT22;13010;-33.424;-70.614;2023-02-26T06:36:34;10.20;99.90
7349;DHT22;13010;-33.424;-70.614;2023-02-26T06:39:23;10.20;99.90
7349;DHT22;13010;-33.424;-70.614;2023-02-26T06:42:13;10.20;99.90
7349;DHT22;13010;-33.424;-70.614;2023-02-26T06:45:04;10.20;99.90
7349;DHT22;13010;-33.424;-70.614;2023-02-26T06:47:55;10.10;99.90
7349;DHT22;13010;-33.424;-70.614;2023-02-26T06:50:44;10.20;99.90
7349;DHT22;13010;-33.424;-70.614;2023-02-26T06:53:32;10.20;99.90
7349;DHT22;13010;-33.424;-70.614;2023-02-26T06:56:21;10.10;99.90
7349;DHT22;13010;-33.424;-70.614;2023-02-26T06:59:10;10.10;99.90
7349;DHT22;13010;-33.424;-70.614;2023-02-26T07:02:00;10.10;99.90
7349;DHT22;13010;-33.424;-70.614;2023-02-26T07:04:51;10.00;99.90
7349;DHT22;13010;-33.424;-70.614;2023-02-26T07:07:39;9.90;99.90
7349;DHT22;13010;-33.424;-70.614;2023-02-26T07:10:28;9.90;99.90
7349;DHT22;13010;-33.424;-70.614;2023-02-26T07:13:18;9.80;99.90
7349;DHT22;13010;-33.424;-70.614;2023-02-26T07:16:07;9.70;99.90
7349;DHT22;13010;-33.424;-70.614;2023-02-26T07:18:56;9.50;99.90
7349;DHT22;13010;-33.424;-70.614;2023-02-26T07:21:47;9.50;99.90
7349;DHT22;13010;-33.424;-70.614;2023-02-26T07:24:36;9.40;99.90
7349;DHT22;13010;-33.424;-70.614;2023-02-26T07:27:25;9.50;99.90
7349;DHT22;13010;-33.424;-70.614;2023-02-26T07:30:15;9.50;99.90
7349;DHT22;13010;-33.424;-70.614;2023-02-26T07:33:03;9.50;99.90
7349;DHT22;13010;-33.424;-70.614;2023-02-26T07:35:53;9.50;99.90
7349;DHT22;13010;-33.424;-70.614;2023-02-26T07:38:44;9.40;99.90
7349;DHT22;13010;-33.424;-70.614;2023-02-26T07:41:32;9.40;99.90
7349;DHT22;13010;-33.424;-70.614;2023-02-26T07:44:21;9.50;99.90
7349;DHT22;13010;-33.424;-70.614;2023-02-26T07:47:10;9.40;99.90
7349;DHT22;13010;-33.424;-70.614;2023-02-26T07:50:00;9.40;99.90
7349;DHT22;13010;-33.424;-70.614;2023-02-26T07:52:49;9.40;99.90
7349;DHT22;13010;-33.424;-70.614;2023-02-26T07:55:39;9.30;99.90
7349;DHT22;13010;-33.424;-70.614;2023-02-26T07:58:28;9.20;99.90
7349;DHT22;13010;-33.424;-70.614;2023-02-26T08:01:16;9.30;99.90
7349;DHT22;13010;-33.424;-70.614;2023-02-26T08:04:05;9.30;99.90
7349;DHT22;13010;-33.424;-70.614;2023-02-26T08:06:54;9.40;99.90
7349;DHT22;13010;-33.424;-70.614;2023-02-26T08:09:43;9.30;99.90
7349;DHT22;13010;-33.424;-70.614;2023-02-26T08:12:33;9.30;99.90
7349;DHT22;13010;-33.424;-70.614;2023-02-26T08:15:22;9.30;99.90
7349;DHT22;13010;-33.424;-70.614;2023-02-26T08:18:10;9.30;99.90
7349;DHT22;13010;-33.424;-70.614;2023-02-26T08:21:00;9.30;99.90
7349;DHT22;13010;-33.424;-70.614;2023-02-26T08:23:49;9.20;99.90
7349;DHT22;13010;-33.424;-70.614;2023-02-26T08:26:39;9.10;99.90
7349;DHT22;13010;-33.424;-70.614;2023-02-26T08:29:29;9.00;99.90
7349;DHT22;13010;-33.424;-70.614;2023-02-26T08:32:19;8.90;99.90
7349;DHT22;13010;-33.424;-70.614;2023-02-26T08:35:08;8.90;99.90
7349;DHT22;13010;-33.424;-70.614;2023-02-26T08:37:58;8.80;99.90
7349;DHT22;13010;-33.424;-70.614;2023-02-26T08:40:49;8.70;99.90
7349;DHT22;13010;-33.424;-70.614;2023-02-26T08:43:39;8.70;99.90
7349;DHT22;13010;-33.424;-70.614;2023-02-26T08:46:30;8.70;99.90
7349;DHT22;13010;-33.424;-70.614;2023-02-26T08:49:18;8.60;99.90
7349;DHT22;13010;-33.424;-70.614;2023-02-26T08:52:07;8.40;99.90
7349;DHT22;13010;-33.424;-70.614;2023-02-26T08:54:56;8.50;99.90
7349;DHT22;13010;-33.424;-70.614;2023-02-26T08:57:46;8.50;99.90
7349;DHT22;13010;-33.424;-70.614;2023-02-26T09:00:36;8.40;99.90
7349;DHT22;13010;-33.424;-70.614;2023-02-26T09:03:26;8.30;99.90
7349;DHT22;13010;-33.424;-70.614;2023-02-26T09:06:15;8.30;99.90
7349;DHT22;13010;-33.424;-70.614;2023-02-26T09:09:04;8.30;99.90
7349;DHT22;13010;-33.424;-70.614;2023-02-26T09:11:53;8.30;99.90
7349;DHT22;13010;-33.424;-70.614;2023-02-26T09:14:43;8.20;99.90
7349;DHT22;13010;-33.424;-70.614;2023-02-26T09:17:32;8.10;99.90
7349;DHT22;13010;-33.424;-70.614;2023-02-26T09:20:23;8.10;99.90
7349;DHT22;13010;-33.424;-70.614;2023-02-26T09:23:12;8.20;99.90
7349;DHT22;13010;-33.424;-70.614;2023-02-26T09:26:02;8.10;99.90
7349;DHT22;13010;-33.424;-70.614;2023-02-26T09:28:50;8.10;99.90
7349;DHT22;13010;-33.424;-70.614;2023-02-26T09:31:39;8.00;99.90
7349;DHT22;13010;-33.424;-70.614;2023-02-26T09:34:28;7.70;99.90
7349;DHT22;13010;-33.424;-70.614;2023-02-26T09:37:19;7.60;99.90
7349;DHT22;13010;-33.424;-70.614;2023-02-26T09:40:10;7.60;99.90
7349;DHT22;13010;-33.424;-70.614;2023-02-26T09:46:46;7.60;99.90
7349;DHT22;13010;-33.424;-70.614;2023-02-26T09:49:48;7.60;99.90
7349;DHT22;13010;-33.424;-70.614;2023-02-26T09:52:42;7.60;99.90
7349;DHT22;13010;-33.424;-70.614;2023-02-26T09:55:36;7.60;99.90
7349;DHT22;13010;-33.424;-70.614;2023-02-26T09:58:30;7.60;99.90
7349;DHT22;13010;-33.424;-70.614;2023-02-26T10:01:25;7.50;99.90
7349;DHT22;13010;-33.424;-70.614;2023-02-26T10:04:23;7.50;99.90
7349;DHT22;13010;-33.424;-70.614;2023-02-26T10:07:21;7.40;99.90
7349;DHT22;13010;-33.424;-70.614;2023-02-26T10:10:21;7.30;99.90
7349;DHT22;13010;-33.424;-70.614;2023-02-26T10:13:21;7.30;99.90
7349;DHT22;13010;-33.424;-70.614;2023-02-26T10:16:13;7.30;99.90
7349;DHT22;13010;-33.424;-70.614;2023-02-26T10:19:05;7.30;99.90
7349;DHT22;13010;-33.424;-70.614;2023-02-26T10:21:59;7.40;99.90
7349;DHT22;13010;-33.424;-70.614;2023-02-26T10:25:04;7.40;99.90
7349;DHT22;13010;-33.424;-70.614;2023-02-26T10:28:01;7.30;99.90
7349;DHT22;13010;-33.424;-70.614;2023-02-26T10:30:53;7.30;99.90
7349;DHT22;13010;-33.424;-70.614;2023-02-26T10:33:48;7.30;99.90
7349;DHT22;13010;-33.424;-70.614;2023-02-26T10:36:43;7.20;99.90
7349;DHT22;13010;-33.424;-70.614;2023-02-26T11:38:57;9.90;99.90
7349;DHT22;13010;-33.424;-70.614;2023-02-26T11:41:47;11.10;99.90
7349;DHT22;13010;-33.424;-70.614;2023-02-26T11:44:38;11.30;99.90
7349;DHT22;13010;-33.424;-70.614;2023-02-26T11:47:29;13.30;99.90
7349;DHT22;13010;-33.424;-70.614;2023-02-26T11:50:20;19.60;99.90
7349;DHT22;13010;-33.424;-70.614;2023-02-26T11:53:18;24.40;99.90
7349;DHT22;13010;-33.424;-70.614;2023-02-26T11:56:12;26.30;99.90
7349;DHT22;13010;-33.424;-70.614;2023-02-26T11:59:06;28.30;86.60
7349;DHT22;13010;-33.424;-70.614;2023-02-26T12:01:56;29.20;64.10
7349;DHT22;13010;-33.424;-70.614;2023-02-26T12:04:51;30.40;53.20
7349;DHT22;13010;-33.424;-70.614;2023-02-26T12:07:40;31.10;44.40
7349;DHT22;13010;-33.424;-70.614;2023-02-26T12:10:37;32.10;38.20
7349;DHT22;13010;-33.424;-70.614;2023-02-26T12:13:35;31.90;33.60
7349;DHT22;13010;-33.424;-70.614;2023-02-26T12:16:30;32.80;31.70
7349;DHT22;13010;-33.424;-70.614;2023-02-26T12:19:29;33.50;28.30
7349;DHT22;13010;-33.424;-70.614;2023-02-26T12:22:41;33.90;26.20
7349;DHT22;13010;-33.424;-70.614;2023-02-26T12:26:00;33.90;25.30
7349;DHT22;13010;-33.424;-70.614;2023-02-26T12:29:12;34.60;23.40
7349;DHT22;13010;-33.424;-70.614;2023-02-26T12:32:23;36.10;21.20
7349;DHT22;13010;-33.424;-70.614;2023-02-26T12:38:34;35.90;18.70
7349;DHT22;13010;-33.424;-70.614;2023-02-26T12:41:42;36.90;18.20
7349;DHT22;13010;-33.424;-70.614;2023-02-26T12:44:51;38.20;16.10
7349;DHT22;13010;-33.424;-70.614;2023-02-26T12:47:55;38.90;14.40
7349;DHT22;13010;-33.424;-70.614;2023-02-26T12:50:57;39.60;13.20
7349;DHT22;13010;-33.424;-70.614;2023-02-26T12:54:11;41.00;11.90
7349;DHT22;13010;-33.424;-70.614;2023-02-26T12:57:15;40.90;10.80
7349;DHT22;13010;-33.424;-70.614;2023-02-26T13:00:22;41.20;10.80
7349;DHT22;13010;-33.424;-70.614;2023-02-26T13:03:31;42.50;9.70
7349;DHT22;13010;-33.424;-70.614;2023-02-26T13:06:33;41.50;9.60
7349;DHT22;13010;-33.424;-70.614;2023-02-26T13:09:32;40.50;10.40
7349;DHT22;13010;-33.424;-70.614;2023-02-26T13:12:29;41.90;9.20
7349;DHT22;13010;-33.424;-70.614;2023-02-26T13:15:43;43.50;8.30
7349;DHT22;13010;-33.424;-70.614;2023-02-26T13:18:41;44.80;6.20
7349;DHT22;13010;-33.424;-70.614;2023-02-26T13:21:34;44.00;7.40
7349;DHT22;13010;-33.424;-70.614;2023-02-26T13:24:25;44.40;6.90
7349;DHT22;13010;-33.424;-70.614;2023-02-26T13:27:16;45.30;6.20
7349;DHT22;13010;-33.424;-70.614;2023-02-26T13:30:17;45.20;6.00
7349;DHT22;13010;-33.424;-70.614;2023-02-26T13:33:16;45.20;5.60
7349;DHT22;13010;-33.424;-70.614;2023-02-26T13:36:06;46.50;4.60
7349;DHT22;13010;-33.424;-70.614;2023-02-26T13:39:10;47.00;4.50
7349;DHT22;13010;-33.424;-70.614;2023-02-26T13:42:20;46.30;4.30
7349;DHT22;13010;-33.424;-70.614;2023-02-26T13:45:25;46.30;3.80
7349;DHT22;13010;-33.424;-70.614;2023-02-26T13:48:29;46.60;3.50
7349;DHT22;13010;-33.424;-70.614;2023-02-26T13:51:30;46.40;3.50
7349;DHT22;13010;-33.424;-70.614;2023-02-26T13:54:41;48.50;3.40
7349;DHT22;13010;-33.424;-70.614;2023-02-26T13:57:42;48.20;2.50
7349;DHT22;13010;-33.424;-70.614;2023-02-26T14:00:36;48.60;2.30
7349;DHT22;13010;-33.424;-70.614;2023-02-26T14:03:36;48.90;1.70
7349;DHT22;13010;-33.424;-70.614;2023-02-26T14:06:42;48.90;1.50
7349;DHT22;13010;-33.424;-70.614;2023-02-26T14:09:44;47.90;2.30
7349;DHT22;13010;-33.424;-70.614;2023-02-26T14:12:43;48.30;2.00
7349;DHT22;13010;-33.424;-70.614;2023-02-26T14:15:42;49.10;2.10
7349;DHT22;13010;-33.424;-70.614;2023-02-26T14:18:42;49.30;1.50
7349;DHT22;13010;-33.424;-70.614;2023-02-26T14:21:48;49.40;1.20
7349;DHT22;13010;-33.424;-70.614;2023-02-26T14:24:38;49.50;1.20
7349;DHT22;13010;-33.424;-70.614;2023-02-26T14:27:35;50.80;1.00
7349;DHT22;13010;-33.424;-70.614;2023-02-26T14:30:29;49.90;1.00
7349;DHT22;13010;-33.424;-70.614;2023-02-26T14:33:28;49.60;1.00
7349;DHT22;13010;-33.424;-70.614;2023-02-26T14:36:26;51.00;1.00
7349;DHT22;13010;-33.424;-70.614;2023-02-26T14:39:30;51.40;1.00
7349;DHT22;13010;-33.424;-70.614;2023-02-26T14:42:25;50.70;1.00
7349;DHT22;13010;-33.424;-70.614;2023-02-26T14:45:29;50.90;1.00
7349;DHT22;13010;-33.424;-70.614;2023-02-26T14:48:23;50.70;1.00
7349;DHT22;13010;-33.424;-70.614;2023-02-26T14:51:25;51.60;1.00
7349;DHT22;13010;-33.424;-70.614;2023-02-26T14:54:33;50.80;1.00
7349;DHT22;13010;-33.424;-70.614;2023-02-26T14:57:30;50.70;1.00
7349;DHT22;13010;-33.424;-70.614;2023-02-26T15:00:30;49.00;1.00
7349;DHT22;13010;-33.424;-70.614;2023-02-26T15:03:42;50.20;1.00
7349;DHT22;13010;-33.424;-70.614;2023-02-26T15:06:54;50.70;1.00
7349;DHT22;13010;-33.424;-70.614;2023-02-26T15:10:00;51.40;1.00
7349;DHT22;13010;-33.424;-70.614;2023-02-26T15:13:10;51.20;1.00
7349;DHT22;13010;-33.424;-70.614;2023-02-26T15:16:05;51.70;1.00
7349;DHT22;13010;-33.424;-70.614;2023-02-26T15:19:09;50.50;1.00
7349;DHT22;13010;-33.424;-70.614;2023-02-26T15:22:14;50.80;1.00
7349;DHT22;13010;-33.424;-70.614;2023-02-26T15:25:16;50.20;1.00
7349;DHT22;13010;-33.424;-70.614;2023-02-26T15:28:10;51.30;1.00
7349;DHT22;13010;-33.424;-70.614;2023-02-26T15:31:01;50.00;1.00
7349;DHT22;13010;-33.424;-70.614;2023-02-26T15:33:55;50.50;1.00
7349;DHT22;13010;-33.424;-70.614;2023-02-26T15:36:47;50.80;1.00
7349;DHT22;13010;-33.424;-70.614;2023-02-26T15:39:41;51.20;1.00
7349;DHT22;13010;-33.424;-70.614;2023-02-26T15:42:32;51.70;1.00
7349;DHT22;13010;-33.424;-70.614;2023-02-26T15:45:27;51.40;1.00
7349;DHT22;13010;-33.424;-70.614;2023-02-26T15:48:21;51.00;1.00
7349;DHT22;13010;-33.424;-70.614;2023-02-26T15:51:14;51.90;1.00
7349;DHT22;13010;-33.424;-70.614;2023-02-26T15:54:04;51.10;1.00
7349;DHT22;13010;-33.424;-70.614;2023-02-26T15:56:57;51.70;1.00
7349;DHT22;13010;-33.424;-70.614;2023-02-26T15:59:50;50.70;1.00
7349;DHT22;13010;-33.424;-70.614;2023-02-26T16:02:41;50.10;1.00
7349;DHT22;13010;-33.424;-70.614;2023-02-26T16:05:30;49.50;1.00
7349;DHT22;13010;-33.424;-70.614;2023-02-26T16:08:19;50.20;1.00
7349;DHT22;13010;-33.424;-70.614;2023-02-26T16:11:10;49.40;1.00
7349;DHT22;13010;-33.424;-70.614;2023-02-26T16:14:03;50.20;1.00
7349;DHT22;13010;-33.424;-70.614;2023-02-26T16:16:53;49.30;1.00
7349;DHT22;13010;-33.424;-70.614;2023-02-26T16:19:44;47.60;1.00
7349;DHT22;13010;-33.424;-70.614;2023-02-26T16:22:36;48.10;1.00
7349;DHT22;13010;-33.424;-70.614;2023-02-26T16:25:30;48.80;1.00
7349;DHT22;13010;-33.424;-70.614;2023-02-26T16:28:22;48.60;1.00
7349;DHT22;13010;-33.424;-70.614;2023-02-26T16:31:22;49.40;1.00
7349;DHT22;13010;-33.424;-70.614;2023-02-26T16:34:27;48.70;1.00
7349;DHT22;13010;-33.424;-70.614;2023-02-26T16:37:24;49.30;1.00
7349;DHT22;13010;-33.424;-70.614;2023-02-26T16:40:18;48.30;1.00
7349;DHT22;13010;-33.424;-70.614;2023-02-26T16:43:34;48.40;1.00
7349;DHT22;13010;-33.424;-70.614;2023-02-26T16:46:36;47.30;1.00
7349;DHT22;13010;-33.424;-70.614;2023-02-26T16:49:30;46.10;1.30
7349;DHT22;13010;-33.424;-70.614;2023-02-26T16:52:22;45.30;1.70
7349;DHT22;13010;-33.424;-70.614;2023-02-26T16:55:13;45.90;2.60
7349;DHT22;13010;-33.424;-70.614;2023-02-26T16:58:06;45.40;1.60
7349;DHT22;13010;-33.424;-70.614;2023-02-26T17:00:59;44.40;2.50
7349;DHT22;13010;-33.424;-70.614;2023-02-26T17:03:55;44.00;2.10
7349;DHT22;13010;-33.424;-70.614;2023-02-26T17:06:45;45.20;3.00
7349;DHT22;13010;-33.424;-70.614;2023-02-26T17:09:36;45.30;1.70
7349;DHT22;13010;-33.424;-70.614;2023-02-26T17:12:37;45.10;1.70
7349;DHT22;13010;-33.424;-70.614;2023-02-26T17:15:29;44.70;2.60
7349;DHT22;13010;-33.424;-70.614;2023-02-26T17:18:19;41.90;3.30
7349;DHT22;13010;-33.424;-70.614;2023-02-26T17:21:13;41.50;4.00
7349;DHT22;13010;-33.424;-70.614;2023-02-26T17:24:02;41.80;2.60
7349;DHT22;13010;-33.424;-70.614;2023-02-26T17:26:53;41.90;3.40
7349;DHT22;13010;-33.424;-70.614;2023-02-26T17:29:44;42.60;3.20
7349;DHT22;13010;-33.424;-70.614;2023-02-26T17:32:36;43.20;3.20
7349;DHT22;13010;-33.424;-70.614;2023-02-26T17:35:24;44.60;1.80
7349;DHT22;13010;-33.424;-70.614;2023-02-26T17:38:16;43.00;2.50
7349;DHT22;13010;-33.424;-70.614;2023-02-26T17:41:05;43.00;4.00
7349;DHT22;13010;-33.424;-70.614;2023-02-26T17:43:54;43.50;2.30
7349;DHT22;13010;-33.424;-70.614;2023-02-26T17:46:43;42.50;3.70
7349;DHT22;13010;-33.424;-70.614;2023-02-26T17:49:32;41.70;3.70
7349;DHT22;13010;-33.424;-70.614;2023-02-26T17:52:22;40.90;3.30
7349;DHT22;13010;-33.424;-70.614;2023-02-26T17:55:16;41.20;3.20
7349;DHT22;13010;-33.424;-70.614;2023-02-26T17:58:06;42.70;2.70
7349;DHT22;13010;-33.424;-70.614;2023-02-26T18:00:55;40.80;3.50
7349;DHT22;13010;-33.424;-70.614;2023-02-26T18:03:45;42.10;3.70
7349;DHT22;13010;-33.424;-70.614;2023-02-26T18:06:35;40.70;2.70
7349;DHT22;13010;-33.424;-70.614;2023-02-26T18:09:24;40.50;3.50
7349;DHT22;13010;-33.424;-70.614;2023-02-26T18:12:16;40.50;3.40
7349;DHT22;13010;-33.424;-70.614;2023-02-26T18:15:06;41.00;2.20
7349;DHT22;13010;-33.424;-70.614;2023-02-26T18:17:55;41.00;2.90
7349;DHT22;13010;-33.424;-70.614;2023-02-26T18:20:44;40.30;3.30
7349;DHT22;13010;-33.424;-70.614;2023-02-26T18:23:33;38.30;4.80
7349;DHT22;13010;-33.424;-70.614;2023-02-26T18:26:22;36.60;6.30
7349;DHT22;13010;-33.424;-70.614;2023-02-26T18:29:14;33.00;7.50
7349;DHT22;13010;-33.424;-70.614;2023-02-26T18:32:03;30.60;9.80
7349;DHT22;13010;-33.424;-70.614;2023-02-26T18:34:52;29.90;10.90
7349;DHT22;13010;-33.424;-70.614;2023-02-26T18:37:41;29.60;11.50
7349;DHT22;13010;-33.424;-70.614;2023-02-26T18:40:30;29.20;11.30
7349;DHT22;13010;-33.424;-70.614;2023-02-26T18:43:19;29.10;13.10
7349;DHT22;13010;-33.424;-70.614;2023-02-26T18:46:12;29.10;12.60
7349;DHT22;13010;-33.424;-70.614;2023-02-26T18:49:00;29.40;15.00
7349;DHT22;13010;-33.424;-70.614;2023-02-26T18:51:50;30.20;11.90
7349;DHT22;13010;-33.424;-70.614;2023-02-26T18:54:39;30.80;11.50
7349;DHT22;13010;-33.424;-70.614;2023-02-26T18:57:28;31.70;10.40
7349;DHT22;13010;-33.424;-70.614;2023-02-26T19:00:18;33.10;9.70
7349;DHT22;13010;-33.424;-70.614;2023-02-26T19:03:10;34.70;8.90
7349;DHT22;13010;-33.424;-70.614;2023-02-26T19:06:03;35.10;8.00